SAF weather

Santa Fe Municipal Airport
Santa Fe, New Mexico, United States

Public forecast

Using degrees Fahrenheit for public forecast. Weather courtesy of forecast.io.

Current aviation weather report (METAR) for Santa Fe Municipal Airport

Retrieved 2019/12/10 00:53 UTC (59 minutes ago):

KSAF 100053Z 36005KT 10SM SCT049 BKN060 03/M02 A3000 RMK AO2 SLP141 T00331017

Aviation forecast (TAF) for Santa Fe Municipal Airport

Retrieved 2019-12-10 00:34 UTC (1 hour ago):

TAF KSAF 092332Z 1000/1024 25008KT P6SM SCT050 FM100200 01005KT P6SM FEW250 FM101900 29009KT P6SM FEW250